Dirección General De Aeronáutica Civil

Dirección Meteorológica de Chile - Servicios Climáticos

Informe General de Control de Calidad de la Estación

Listado de niveles de control de calidad para algunos parámetros
Estación Pichoy, Valdivia Ad. (390006)
Fecha de Revisión de los datos :

Elementos

Registros Niveles de Control Total
Nivel 0 Nivel 1 Nivel 2 Nivel 3 Errores Porcentaje
01 Temperatura del Aire Seco 299.247 0 . 9 0.00 % 0 . 0 . 9 0.00 %
02 Temperatura de Rocío 279.657 0 . 0 . 0 . 0 . 0 0.00 %
03 Humedad Relativa del Aire 290.706 0 . 0 . 0 . 0 . 0 0.00 %
04 Temperatura Máxima PM 20.775 0 . 0 . 2 0.01 % 0 . 2 0.01 %
05 Temperatura Mínima AM 20.618 0 . 0 . 0 . 0 . 0 0.00 %
06 Viento a 10 m. de Altura 181.097 2 0.00 % 2 0.00 % 0 . 0 . 4 0.00 %
07 Agua Caida, Acumulada 6 Horas 77.672 0 . 399 0.51 % 0 . 0 . 399 0.51 %
08 Presión Atm. a Nivel de Estación (QFE) 278.404 0 . 0 . 0 . 0 . 0 0.00 %
09 Presión Atm. a Nivel Medio del Mar (QFF) 261.051 0 . 0 . 0 . 0 . 0 0.00 %
10 Presión Atm. Estándar OACI (QNH) 113.233 3 0.00 % 0 . 0 . 0 . 3 0.00 %
11 Tiempo Pasado Sinóptico 15.816 0 . 0 . 0 . 0 . 0 0.00 %
12 Tiempo Presente Sinóptico 114.744 0 . 18 0.02 % 0 . 0 . 18 0.02 %

Totales

1.953.020 . 0.0003 % . 0.0219 % . 0.0001 % . 0.0000 % 435 0.0223 %

Detalle de Errores Recientes

Fecha del Dato Descripción Información Error Fecha Ingreso
1969-07-21 20:00:00 (ts - td > 5.0) y ((ww >= 40 y ww <= 49)) 40 2024-02-29 19:00:00
1969-09-24 17:00:00 ts > 5.0 y ((ww >= 70 y ww <= 79) || (ww >= 85 y ww <= 88))) 85 2024-02-19 20:12:00
1969-10-12 17:00:00 ts > 5.0 y ((ww >= 70 y ww <= 79) || (ww >= 85 y ww <= 88))) 88 2024-02-20 13:15:00
Total de Errores Recientes 3

Detalle de Errores Encontrados

Nivel Fecha del Dato Descripción Información Error Fecha Ingreso
0 1970-07-31 15:00:00 ff (Intensidad del Viento) debe ser numerico, entre 0 y 70 kt. 75 2011-09-06 11:42:00
0 1972-05-31 09:00:00 ff (Intensidad del Viento) debe ser numerico, entre 0 y 70 kt. 80 2011-09-06 11:48:00
0 2012-07-19 18:22:00 qnh (Presión a nivel estandar) debe ser numérico, entre 300 y 1100 99.0 2012-07-19 18:20:00
0 2012-07-19 19:37:00 qnh (Presión a nivel estandar) debe ser numérico, entre 300 y 1100 99.0 2012-07-19 19:34:00
0 2012-08-14 23:22:00 qnh (Presión a nivel estandar) debe ser numérico, entre 300 y 1100 96.0 2012-08-14 23:25:00
Errores del Nivel 5
Nivel Fecha del Dato Descripción Información Error Fecha Ingreso
1 1968-07-23 12:00:00 ts > 3.0 y ( (ww >= 48 y ww <= 49) o (ww >= 56 y ww <= 57) o (ww >=66 y ww <= 67)) 56 2012-02-08 16:54:00
1 1968-08-19 21:00:00 ts > 5.0 y ((ww >= 70 y ww <= 79) || (ww >= 85 y ww <= 88))) 88 2012-02-08 16:54:00
1 1969-07-21 20:00:00 (ts - td > 5.0) y ((ww >= 40 y ww <= 49)) 40 2024-02-29 19:00:00
1 1969-09-24 17:00:00 ts > 5.0 y ((ww >= 70 y ww <= 79) || (ww >= 85 y ww <= 88))) 85 2024-02-19 20:12:00
1 1969-10-12 17:00:00 ts > 5.0 y ((ww >= 70 y ww <= 79) || (ww >= 85 y ww <= 88))) 88 2024-02-20 13:15:00
1 1970-06-03 12:00:00 (ts - td > 5.0) y ((ww >= 40 y ww <= 49)) 45 2012-02-08 16:48:00
1 1970-06-27 12:00:00 ts > 5.0 y ((ww >= 70 y ww <= 79) || (ww >= 85 y ww <= 88))) 88 2012-02-08 16:48:00
1 1971-04-15 15:00:00 (ts - td > 5.0) y ((ww >= 40 y ww <= 49)) 45 2012-02-08 16:45:00
1 1973-07-01 18:00:00 (ts - td > 5.0) y ((ww >= 40 y ww <= 49)) 43 2012-02-08 16:39:00
1 1973-09-06 15:00:00 (ts - td > 5.0) y ((ww >= 40 y ww <= 49)) 43 2012-02-08 16:40:00
1 1975-02-14 12:00:00 ts > 5.0 y ((ww >= 70 y ww <= 79) || (ww >= 85 y ww <= 88))) 85 2012-02-08 16:32:00
1 1975-08-14 15:00:00 (ts - td > 5.0) y ((ww >= 40 y ww <= 49)) 43 2012-02-08 16:33:00
1 1976-05-31 21:00:00 ts > 5.0 y ((ww >= 70 y ww <= 79) || (ww >= 85 y ww <= 88))) 87 2012-02-08 16:30:00
1 1977-05-08 12:00:00 ts > 5.0 y ((ww >= 70 y ww <= 79) || (ww >= 85 y ww <= 88))) 75 2012-02-08 16:27:00
1 1977-07-28 18:00:00 ts > 5.0 y ((ww >= 70 y ww <= 79) || (ww >= 85 y ww <= 88))) 87 2012-02-08 16:28:00
1 1981-03-22 18:00:00 ts > 5.0 y ((ww >= 70 y ww <= 79) || (ww >= 85 y ww <= 88))) 88 2019-06-14 16:00:00
1 2020-05-16 15:00:00 ts > 5.0 y ((ww >= 70 y ww <= 79) || (ww >= 85 y ww <= 88))) 85 2020-05-16 14:55:00
1 2021-09-25 15:00:00 ts > 3.0 y ( (ww >= 48 y ww <= 49) o (ww >= 56 y ww <= 57) o (ww >=66 y ww <= 67)) 67 2021-09-25 14:56:00
1 1969-07-29 00:00:00 ff < 19kt y ((ww >= 31 y ww <= 35) o (ww == 37 o ww == 39 o ww >= 98))) 2011-09-06 11:39:00
1 2020-11-17 00:00:00 No se informa dirección del Viento (dd), pero si una fuerza y el viento no es variable 2020-11-17 00:20:00
1 1999-04-27 15:40:00 Ts debe ser mayor o igual a Td Ts=9.4 - Td=10.0 2011-04-11 12:36:00
1 1999-06-02 16:30:00 Ts debe ser mayor o igual a Td Ts=4.4 - Td=5.0 2011-04-11 12:36:00
1 1999-07-22 13:35:00 Ts debe ser mayor o igual a Td Ts=0.7 - Td=14.5 2011-04-11 12:36:00
1 2005-04-15 12:35:00 Ts debe ser mayor o igual a Td Ts=1.3 - Td=17.5 2011-04-08 11:32:00
1 2006-08-20 13:35:00 Ts debe ser mayor o igual a Td Ts=2.6 - Td=3.1 2011-04-11 14:53:00
1 2011-03-16 13:35:00 Ts debe ser mayor o igual a Td Ts=6.8 - Td=7.0 2012-09-14 11:45:00
1 2011-05-15 14:35:00 Ts debe ser mayor o igual a Td Ts=10.8 - Td=11.0 2012-09-14 11:45:00
1 2011-05-17 14:15:00 Ts debe ser mayor o igual a Td Ts=11.7 - Td=12.0 2012-09-14 11:45:00
1 2014-06-26 15:00:00 Ts debe ser mayor o igual a Td Ts=3.9 - Td=3.9 2014-06-26 14:49:00
1 2006-08-11 12:00:00 rrr = 9.4 y WW = 2 w1=2 w2=2 9.4 2013-05-27 16:24:00
1 2007-05-16 12:00:00 rrr = 2.1 y WW = 10 w1=2 w2=2 2.1 2013-05-08 19:57:00
1 2012-07-01 00:00:00 rrr = s/p y WW = 62 w1=8 w2=6 0.0 2012-09-25 12:13:00
1 2012-08-01 18:00:00 rrr = 0.4 y WW = 2 w1=2 w2=2 0.4 2012-08-01 17:49:00
1 2012-08-18 18:00:00 rrr = s/p y WW = 16 w1=8 w2=2 0.0 2012-08-18 18:04:00
1 2012-09-13 18:00:00 rrr = trazas y WW = 2 w1=4 w2=2 0.0 2012-09-13 17:58:00
1 2012-11-17 18:00:00 rrr = trazas y WW = 1 w1=1 w2=0 0.0 2012-11-17 17:53:00
1 2013-02-09 18:00:00 rrr = trazas y WW = 3 w1=2 w2=2 0.0 2013-02-09 17:57:00
1 2013-04-12 00:00:00 rrr = trazas y WW = 2 w1=1 w2=1 0.0 2013-04-12 02:59:00
1 2013-04-15 18:00:00 rrr = s/p y WW = 1 w1=5 w2=4 0.0 2013-04-15 17:56:00
1 2013-04-22 18:00:00 rrr = s/p y WW = 2 w1=8 w2=2 0.0 2013-04-22 17:56:00
1 2013-05-17 18:00:00 rrr = trazas y WW = 2 w1=2 w2=2 0.0 2013-05-17 17:53:00
1 2013-05-20 18:00:00 rrr = 0.3 y WW = 1 w1=4 w2=1 0.3 2013-05-20 17:48:00
1 2013-05-30 00:00:00 rrr = trazas y WW = 2 w1=2 w2=2 0.0 2013-05-29 23:49:00
1 2013-06-14 18:00:00 rrr = trazas y WW = 10 w1=2 w2=2 0.0 2013-06-14 17:54:00
1 2013-08-17 18:00:00 rrr = trazas y WW = 10 w1=4 w2=4 0.0 2013-08-17 17:58:00
1 2013-09-01 18:00:00 rrr = s/p y WW = 2 w1=8 w2=2 0.0 2013-09-01 17:57:00
1 2013-09-03 00:00:00 rrr = trazas y WW = 3 w1=1 w2=1 0.0 2013-09-02 23:57:00
1 2013-09-16 00:00:00 rrr = 0.2 y WW = 2 w1=1 w2=1 0.2 2013-09-15 23:59:00
1 2013-10-07 18:00:00 rrr = s/p y WW = 3 w1=5 w2=1 0.0 2013-10-07 17:52:00
1 2013-11-07 00:00:00 rrr = 1.1 y WW = 2 w1=1 w2=1 1.1 2013-11-06 23:54:00
1 2013-11-12 18:00:00 rrr = 0.2 y WW = 2 w1=2 w2=2 0.2 2013-11-12 17:48:00
1 2014-01-02 18:00:00 rrr = trazas y WW = 2 w1=2 w2=0 0.0 2014-01-02 17:55:00
1 2014-01-25 18:00:00 rrr = 2.0 y WW = 2 w1=1 w2=0 2.0 2014-01-25 17:54:00
1 2014-02-07 00:00:00 rrr = trazas y WW = 2 w1=2 w2=2 0.0 2014-02-07 00:01:00
1 2014-04-09 18:00:00 rrr = 2.0 y WW = 1 w1=2 w2=1 2.0 2014-04-09 17:54:00
1 2014-04-10 18:00:00 rrr = 0.4 y WW = 2 w1=2 w2=1 0.4 2014-04-10 17:57:00
1 2014-06-15 18:00:00 rrr = 0.7 y WW = 1 w1=1 w2=1 0.7 2014-06-15 17:58:00
1 2014-06-16 12:00:00 rrr = 1.3 y WW = 10 w1=2 w2=2 1.3 2014-06-16 15:14:00
1 2014-06-19 18:00:00 rrr = 0.2 y WW = 0 w1=4 w2=4 0.2 2014-06-19 17:53:00
1 2014-06-27 00:00:00 rrr = 0.9 y WW = 2 w1=2 w2=2 0.9 2014-06-26 23:58:00
1 2014-06-28 18:00:00 rrr = 0.2 y WW = 2 w1=2 w2=2 0.2 2014-06-28 17:56:00
1 2014-07-17 18:00:00 rrr = trazas y WW = 1 w1=2 w2=2 0.0 2014-07-17 17:55:00
1 2014-07-25 18:00:00 rrr = 0.4 y WW = 15 w1=2 w2=2 0.4 2014-07-25 17:55:00
1 2014-07-28 18:00:00 rrr = 0.9 y WW = 2 w1=2 w2=2 0.9 2014-07-28 17:51:00
1 2014-09-02 18:00:00 rrr = 0.8 y WW = 2 w1=2 w2=2 0.8 2014-09-02 17:53:00
1 2014-09-07 12:00:00 rrr = 31.0 y WW = 2 w1=2 w2=2 31.0 2014-09-07 11:53:00
1 2014-09-10 12:00:00 rrr = 6.9 y WW = 2 w1=2 w2=2 6.9 2014-09-10 11:59:00
1 2014-09-22 18:00:00 rrr = 6.0 y WW = 2 w1=1 w2=1 6.0 2014-09-22 17:47:00
1 2014-09-26 12:00:00 rrr = 0.6 y WW = 2 w1=2 w2=2 0.6 2014-09-26 11:53:00
1 2014-10-30 12:00:00 rrr = 9.5 y WW = 1 w1=1 w2=1 9.5 2014-10-30 11:52:00
1 2014-10-30 18:00:00 rrr = 0.8 y WW = 1 w1=1 w2=1 0.8 2014-10-30 17:51:00
1 2014-11-05 18:00:00 rrr = s/p y WW = 80 w1=6 w2=6 0.0 2014-11-05 17:53:00
1 2014-11-23 12:00:00 rrr = 5.3 y WW = 2 w1=2 w2=2 5.3 2014-11-23 11:56:00
1 2014-11-23 18:00:00 rrr = 0.6 y WW = 2 w1=2 w2=2 0.6 2014-11-23 17:52:00
1 2014-11-29 18:00:00 rrr = trazas y WW = 2 w1=1 w2=1 0.0 2014-11-29 17:51:00
1 2014-12-14 12:00:00 rrr = 0.6 y WW = 2 w1=0 w2=0 0.6 2014-12-14 12:26:00
1 2014-12-29 12:00:00 rrr = 1.1 y WW = 1 w1=1 w2=1 1.1 2014-12-29 11:51:00
1 2014-12-30 12:00:00 rrr = trazas y WW = 15 w1=2 w2=2 0.0 2014-12-30 11:51:00
1 2014-12-31 12:00:00 rrr = 9.0 y WW = 1 w1=2 w2=2 9.0 2014-12-31 11:47:00
1 2014-12-31 18:00:00 rrr = 2.3 y WW = 2 w1=2 w2=2 2.3 2014-12-31 17:56:00
1 2015-01-01 12:00:00 rrr = 0.2 y WW = 28 w1=4 w2=4 0.2 2015-01-01 11:55:00
1 2015-01-01 12:00:00 rrr = 0.2 y WW = 28 w1=4 w2=4 0.2 2015-01-01 11:55:00
1 2015-01-22 12:00:00 rrr = trazas y WW = 2 w1=2 w2=2 0.0 2015-01-22 11:51:00
1 2015-01-28 12:00:00 rrr = trazas y WW = 2 w1=0 w2=0 0.0 2015-01-28 11:50:00
1 2015-03-03 00:00:00 rrr = 2.5 y WW = 1 w1=0 w2=0 2.5 2015-03-03 00:00:00
1 2015-03-03 18:00:00 rrr = trazas y WW = 2 w1=1 w2=0 0.0 2015-03-03 17:51:00
1 2015-03-17 12:00:00 rrr = 2.8 y WW = 2 w1=2 w2=2 2.8 2015-03-17 11:53:00
1 2015-03-20 12:00:00 rrr = 1.8 y WW = 1 w1=0 w2=0 1.8 2015-03-20 11:51:00
1 2015-03-29 12:00:00 rrr = 1.0 y WW = 2 w1=2 w2=2 1.0 2015-03-29 11:57:00
1 2015-04-08 00:00:00 rrr = 1.3 y WW = 3 w1=1 w2=1 1.3 2015-04-07 23:56:00
1 2015-04-14 12:00:00 rrr = 0.2 y WW = 5 w1=2 w2=2 0.2 2015-04-14 11:55:00
1 2015-04-19 12:00:00 rrr = 15.0 y WW = 2 w1=2 w2=2 15.0 2015-04-19 11:57:00
1 2015-05-04 12:00:00 rrr = 2.1 y WW = 40 w1=2 w2=2 2.1 2015-05-04 11:52:00
1 2015-05-12 12:00:00 rrr = 3.2 y WW = 1 w1=1 w2=1 3.2 2015-05-12 11:41:00
1 2015-05-16 12:00:00 rrr = 11.7 y WW = 2 w1=2 w2=2 11.7 2015-05-16 11:51:00
1 2015-05-21 12:00:00 rrr = 4.4 y WW = 1 w1=2 w2=2 4.4 2015-05-21 11:56:00
1 2015-05-29 12:00:00 rrr = 20.0 y WW = 2 w1=2 w2=2 20.0 2015-05-29 11:50:00
1 2015-06-01 18:00:00 rrr = 3.0 y WW = 5 w1=2 w2=2 3.0 2015-06-01 17:53:00
1 2015-06-06 12:00:00 rrr = 25.0 y WW = 2 w1=2 w2=2 25.0 2015-06-06 11:55:00
1 2015-06-08 18:00:00 rrr = 0.2 y WW = 3 w1=2 w2=2 0.2 2015-06-08 17:50:00
1 2015-06-09 12:00:00 rrr = 3.8 y WW = 28 w1=4 w2=4 3.8 2015-06-09 11:44:00
1 2015-06-09 18:00:00 rrr = 0.2 y WW = 1 w1=4 w2=4 0.2 2015-06-09 17:53:00
1 2015-06-13 18:00:00 rrr = 0.8 y WW = 2 w1=2 w2=2 0.8 2015-06-13 17:50:00
1 2015-06-14 12:00:00 rrr = 5.5 y WW = 5 w1=2 w2=2 5.5 2015-06-14 11:57:00
1 2015-06-17 12:00:00 rrr = 4.0 y WW = 28 w1=4 w2=4 4.0 2015-06-17 11:56:00
1 2015-06-26 12:00:00 rrr = 2.8 y WW = 2 w1=2 w2=2 2.8 2015-06-26 11:49:00
1 2015-06-30 12:00:00 rrr = 1.5 y WW = 28 w1=2 w2=2 1.5 2015-06-30 11:45:00
1 2015-07-03 12:00:00 rrr = 0.2 y WW = 28 w1=2 w2=2 0.2 2015-07-03 11:54:00
1 2015-07-03 18:00:00 rrr = trazas y WW = 2 w1=2 w2=2 0.0 2015-07-03 17:51:00
1 2015-07-08 18:00:00 rrr = 1.5 y WW = 2 w1=2 w2=2 1.5 2015-07-08 17:54:00
1 2015-07-11 12:00:00 rrr = 3.0 y WW = 28 w1=4 w2=4 3.0 2015-07-11 11:48:00
1 2015-07-12 12:00:00 rrr = 0.2 y WW = 2 w1=2 w2=2 0.2 2015-07-12 11:48:00
1 2015-07-16 12:00:00 rrr = 1.3 y WW = 10 w1=4 w2=4 1.3 2015-07-16 11:42:00
1 2015-07-31 12:00:00 rrr = 2.4 y WW = 2 w1=2 w2=2 2.4 2015-07-31 11:52:00
1 2015-09-08 18:00:00 rrr = 0.8 y WW = 1 w1=2 w2=2 0.8 2015-09-08 17:47:00
1 2015-10-14 18:00:00 rrr = 0.3 y WW = 1 w1=2 w2=2 0.3 2015-10-14 17:51:00
1 2015-10-15 18:00:00 rrr = 0.4 y WW = 1 w1=2 w2=2 0.4 2015-10-15 17:53:00
1 2015-10-24 18:00:00 rrr = 2.5 y WW = 2 w1=2 w2=2 2.5 2015-10-24 17:52:00
1 2015-11-17 18:00:00 rrr = 1.6 y WW = 1 w1=2 w2=2 1.6 2015-11-17 17:51:00
1 2015-11-24 18:00:00 rrr = 1.5 y WW = 2 w1=2 w2=2 1.5 2015-11-24 17:48:00
1 2016-02-04 18:00:00 rrr = trazas y WW = 2 w1=2 w2=2 0.0 2016-02-04 17:49:00
1 2016-02-24 18:00:00 rrr = trazas y WW = 2 w1=0 w2=0 0.0 2016-02-24 17:49:00
1 2016-03-23 18:00:00 rrr = 0.2 y WW = 1 w1=1 w2=1 0.2 2016-03-23 17:55:00
1 2016-04-07 00:00:00 rrr = 2.4 y WW = 2 w1=2 w2=2 2.4 2016-04-06 23:51:00
1 2016-06-29 18:00:00 rrr = 0.2 y WW = 2 w1=0 w2=0 0.2 2016-06-29 17:52:00
1 2016-07-17 18:00:00 rrr = 1.4 y WW = 2 w1=2 w2=2 1.4 2016-07-17 17:56:00
1 2016-07-23 18:00:00 rrr = trazas y WW = 2 w1=2 w2=2 0.0 2016-07-23 17:51:00
1 2016-08-08 18:00:00 rrr = 0.2 y WW = 2 w1=2 w2=2 0.2 2016-08-08 17:53:00
1 2016-08-17 18:00:00 rrr = 4.0 y WW = 2 w1=2 w2=2 4.0 2016-08-17 17:49:00
1 2016-09-03 18:00:00 rrr = trazas y WW = 2 w1=0 w2=0 0.0 2016-09-03 17:51:00
1 2016-11-01 12:00:00 rrr = 2.4 y WW = 2 w1=4 w2=2 2.4 2016-11-01 11:57:00
1 2016-11-02 12:00:00 rrr = 0.4 y WW = 2 w1=4 w2=2 0.4 2016-11-02 11:49:00
1 2016-11-06 18:00:00 rrr = 0.2 y WW = 2 w1=2 w2=2 0.2 2016-11-06 17:49:00
1 2016-11-15 12:00:00 rrr = 7.5 y WW = 1 w1=2 w2=2 7.5 2016-11-15 11:49:00
1 2016-12-05 12:00:00 rrr = 14.0 y WW = 1 w1=2 w2=2 14.0 2016-12-05 11:51:00
1 2016-12-10 12:00:00 rrr = 1.2 y WW = 2 w1=2 w2=2 1.2 2016-12-10 11:53:00
1 2016-12-11 12:00:00 rrr = 0.4 y WW = 2 w1=2 w2=2 0.4 2016-12-11 11:54:00
1 2016-12-11 18:00:00 rrr = trazas y WW = 1 w1=2 w2=2 0.0 2016-12-11 17:53:00
1 2016-12-17 12:00:00 rrr = 10.0 y WW = 1 w1=2 w2=2 10.0 2016-12-17 11:53:00
1 2016-12-21 18:00:00 rrr = 0.4 y WW = 2 w1=0 w2=0 0.4 2016-12-21 17:53:00
1 2016-12-31 12:00:00 rrr = 2.6 y WW = 2 w1=2 w2=2 2.6 2016-12-31 11:49:00
1 2017-01-04 12:00:00 rrr = 1.8 y WW = 1 w1=4 w2=4 1.8 2017-01-04 11:47:00
1 2017-01-07 12:00:00 rrr = 2.8 y WW = 2 w1=2 w2=2 2.8 2017-01-07 12:02:00
1 2017-01-07 18:00:00 rrr = trazas y WW = 2 w1=2 w2=2 0.0 2017-01-07 17:49:00
1 2017-01-09 12:00:00 rrr = 15.4 y WW = 1 w1=2 w2=2 15.4 2017-01-09 11:55:00
1 2017-01-25 12:00:00 rrr = 0.2 y WW = 2 w1=0 w2=0 0.2 2017-01-25 11:52:00
1 2017-02-17 12:00:00 rrr = 0.6 y WW = 10 w1=4 w2=4 0.6 2017-02-17 11:48:00
1 2017-02-20 18:00:00 rrr = 1.8 y WW = 2 w1=2 w2=2 1.8 2017-02-20 17:58:00
1 2017-03-01 12:00:00 rrr = 1.2 y WW = 40 w1=4 w2=2 1.2 2017-03-01 11:51:00
1 2017-03-03 12:00:00 rrr = s/p y WW = 2 w1=8 w2=2 0.0 2017-03-03 11:56:00
1 2017-03-10 12:00:00 rrr = 2.4 y WW = 2 w1=2 w2=2 2.4 2017-03-10 11:52:00
1 2017-03-11 12:00:00 rrr = 4.6 y WW = 28 w1=2 w2=2 4.6 2017-03-11 11:52:00
1 2017-03-26 12:00:00 rrr = 2.4 y WW = 2 w1=2 w2=2 2.4 2017-03-26 11:47:00
1 2017-03-31 18:00:00 rrr = 0.2 y WW = 0 w1=2 w2=2 0.2 2017-03-31 17:57:00
1 2017-04-02 12:00:00 rrr = 16.3 y WW = 2 w1=2 w2=2 16.3 2017-04-02 11:51:00
1 2017-04-03 18:00:00 rrr = 0.5 y WW = 2 w1=2 w2=2 0.5 2017-04-03 17:53:00
1 2017-04-21 18:00:00 rrr = 8.0 y WW = 2 w1=2 w2=2 8.0 2017-04-21 17:53:00
1 2017-04-26 12:00:00 rrr = 1.8 y WW = 2 w1=2 w2=2 1.8 2017-04-26 11:52:00
1 2017-04-27 18:00:00 rrr = 0.2 y WW = 2 w1=2 w2=2 0.2 2017-04-27 17:52:00
1 2017-05-01 12:00:00 rrr = 0.2 y WW = 10 w1=4 w2=4 0.2 2017-05-01 11:51:00
1 2017-05-02 12:00:00 rrr = 54.0 y WW = 1 w1=2 w2=2 54.0 2017-05-02 11:50:00
1 2017-05-09 12:00:00 rrr = 0.2 y WW = 2 w1=4 w2=2 0.2 2017-05-09 11:54:00
1 2017-05-10 12:00:00 rrr = 0.2 y WW = 5 w1=4 w2=4 0.2 2017-05-10 11:51:00
1 2017-05-11 18:00:00 rrr = 2.8 y WW = 2 w1=2 w2=2 2.8 2017-05-11 17:54:00
1 2017-05-12 12:00:00 rrr = 4.0 y WW = 1 w1=2 w2=2 4.0 2017-05-12 12:01:00
1 2017-05-26 18:00:00 rrr = 0.2 y WW = 10 w1=4 w2=4 0.2 2017-05-26 17:51:00
1 2017-06-10 18:00:00 rrr = 0.5 y WW = 3 w1=1 w2=1 0.5 2017-06-10 17:47:00
1 2017-06-12 18:00:00 rrr = 0.2 y WW = 5 w1=2 w2=2 0.2 2017-06-12 17:55:00
1 2017-06-17 18:00:00 rrr = 1.2 y WW = 1 w1=2 w2=2 1.2 2017-06-17 17:48:00
1 2017-07-02 18:00:00 rrr = 0.2 y WW = 2 w1=2 w2=2 0.2 2017-07-02 17:49:00
1 2017-07-14 00:00:00 rrr = 12.6 y WW = 1 w1=1 w2=1 12.6 2017-07-13 23:58:00
1 2017-07-19 18:00:00 rrr = trazas y WW = 40 w1=2 w2=2 0.0 2017-07-19 17:56:00
1 2017-07-26 18:00:00 rrr = trazas y WW = 2 w1=1 w2=1 0.0 2017-07-26 17:56:00
1 2017-08-12 18:00:00 rrr = 0.6 y WW = 2 w1=2 w2=2 0.6 2017-08-12 17:52:00
1 2017-08-15 12:00:00 rrr = 7.5 y WW = 1 w1=2 w2=2 7.5 2017-08-15 11:49:00
1 2017-08-20 12:00:00 rrr = 0.8 y WW = 2 w1=2 w2=2 0.8 2017-08-20 11:56:00
1 2017-08-27 18:00:00 rrr = 3.5 y WW = 2 w1=2 w2=2 3.5 2017-08-27 17:50:00
1 2017-09-01 18:00:00 rrr = 7.1 y WW = 1 w1=1 w2=1 7.1 2017-09-01 17:51:00
1 2017-09-06 12:00:00 rrr = 11.0 y WW = 10 w1=2 w2=2 11.0 2017-09-06 11:54:00
1 2017-09-09 12:00:00 rrr = 1.0 y WW = 1 w1=0 w2=0 1.0 2017-09-09 11:50:00
1 2017-09-13 12:00:00 rrr = 0.1 y WW = 3 w1=2 w2=2 0.1 2017-09-13 11:54:00
1 2017-09-15 18:00:00 rrr = trazas y WW = 2 w1=0 w2=0 0.0 2017-09-15 17:56:00
1 2017-09-20 12:00:00 rrr = 1.2 y WW = 5 w1=2 w2=2 1.2 2017-09-20 11:48:00
1 2017-09-20 18:00:00 rrr = 1.0 y WW = 1 w1=2 w2=2 1.0 2017-09-20 17:54:00
1 2017-10-03 12:00:00 rrr = 26.0 y WW = 2 w1=2 w2=2 26.0 2017-10-03 11:48:00
1 2017-10-06 12:00:00 rrr = 4.7 y WW = 1 w1=1 w2=1 4.7 2017-10-06 11:51:00
1 2017-10-08 12:00:00 rrr = 3.0 y WW = 5 w1=2 w2=2 3.0 2017-10-08 11:51:00
1 2017-10-08 18:00:00 rrr = 0.2 y WW = 3 w1=1 w2=1 0.2 2017-10-08 17:52:00
1 2017-10-09 12:00:00 rrr = 4.0 y WW = 2 w1=1 w2=1 4.0 2017-10-09 11:59:00
1 2017-10-09 18:00:00 rrr = trazas y WW = 2 w1=1 w2=1 0.0 2017-10-09 17:51:00
1 2017-10-11 12:00:00 rrr = 2.5 y WW = 10 w1=4 w2=4 2.5 2017-10-11 11:49:00
1 2017-10-17 12:00:00 rrr = 0.4 y WW = 2 w1=2 w2=2 0.4 2017-10-17 11:47:00
1 2017-10-25 12:00:00 rrr = 0.7 y WW = 2 w1=2 w2=2 0.7 2017-10-25 11:50:00
1 2017-10-30 12:00:00 rrr = 10.8 y WW = 2 w1=2 w2=2 10.8 2017-10-30 11:49:00
1 2017-10-30 18:00:00 rrr = 0.2 y WW = 2 w1=2 w2=2 0.2 2017-10-30 17:49:00
1 2017-11-02 12:00:00 rrr = 0.1 y WW = 3 w1=1 w2=1 0.1 2017-11-02 11:54:00
1 2017-11-03 12:00:00 rrr = 5.3 y WW = 2 w1=4 w2=1 5.3 2017-11-03 11:57:00
1 2017-11-05 12:00:00 rrr = 6.6 y WW = 2 w1=2 w2=2 6.6 2017-11-05 11:49:00
1 2017-11-07 12:00:00 rrr = trazas y WW = 40 w1=4 w2=2 0.0 2017-11-07 11:57:00
1 2017-12-07 12:00:00 rrr = trazas y WW = 1 w1=2 w2=2 0.0 2017-12-07 11:59:00
1 2017-12-14 12:00:00 rrr = trazas y WW = 2 w1=4 w2=2 0.0 2017-12-14 12:01:00
1 2017-12-16 18:00:00 rrr = 4.4 y WW = 1 w1=1 w2=1 4.4 2017-12-16 17:52:00
1 2017-12-22 12:00:00 rrr = 1.2 y WW = 2 w1=2 w2=2 1.2 2017-12-22 11:52:00
1 2017-12-25 18:00:00 rrr = trazas y WW = 2 w1=2 w2=2 0.0 2017-12-25 17:49:00
1 2017-12-26 12:00:00 rrr = 8.0 y WW = 1 w1=2 w2=2 8.0 2017-12-26 11:49:00
1 2017-12-30 12:00:00 rrr = 19.0 y WW = 1 w1=4 w2=4 19.0 2017-12-30 11:51:00
1 2018-01-04 12:00:00 rrr = 17.3 y WW = 2 w1=2 w2=2 17.3 2018-01-04 11:47:00
1 2018-01-05 12:00:00 rrr = 2.5 y WW = 1 w1=2 w2=2 2.5 2018-01-05 11:49:00
1 2018-01-22 12:00:00 rrr = trazas y WW = 2 w1=0 w2=0 0.0 2018-01-22 11:54:00
1 2018-02-09 12:00:00 rrr = 1.4 y WW = 1 w1=0 w2=0 1.4 2018-02-09 11:56:00
1 2018-02-18 12:00:00 rrr = trazas y WW = 2 w1=2 w2=2 0.0 2018-02-18 11:53:00
1 2018-02-19 12:00:00 rrr = 0.8 y WW = 2 w1=2 w2=2 0.8 2018-02-19 11:50:00
1 2018-02-19 18:00:00 rrr = 0.4 y WW = 1 w1=2 w2=2 0.4 2018-02-19 17:52:00
1 2018-02-23 12:00:00 rrr = 13.8 y WW = 11 w1=4 w2=2 13.8 2018-02-23 11:54:00
1 2018-03-04 12:00:00 rrr = 21.8 y WW = 1 w1=1 w2=1 21.8 2018-03-04 11:47:00
1 2018-03-11 18:00:00 rrr = 2.0 y WW = 2 w1=2 w2=2 2.0 2018-03-11 17:52:00
1 2018-03-23 12:00:00 rrr = 19.6 y WW = 1 w1=1 w2=1 19.6 2018-03-23 11:51:00
1 2018-04-08 18:00:00 rrr = 3.0 y WW = 2 w1=2 w2=2 3.0 2018-04-08 17:51:00
1 2018-04-11 18:00:00 rrr = 0.4 y WW = 2 w1=0 w2=0 0.4 2018-04-11 17:52:00
1 2018-04-16 18:00:00 rrr = 2.6 y WW = 2 w1=2 w2=2 2.6 2018-04-16 17:51:00
1 2018-04-22 18:00:00 rrr = 0.2 y WW = 1 w1=2 w2=2 0.2 2018-04-22 17:48:00
1 2018-05-07 12:00:00 rrr = 1.8 y WW = 10 w1=4 w2=4 1.8 2018-05-07 11:51:00
1 2018-05-15 12:00:00 rrr = 0.2 y WW = 10 w1=4 w2=4 0.2 2018-05-15 11:49:00
1 2018-05-16 18:00:00 rrr = s/p y WW = 61 w1=2 w2=2 0.0 2018-05-16 17:57:00
1 2018-05-29 18:00:00 rrr = 0.2 y WW = 2 w1=2 w2=2 0.2 2018-05-29 17:50:00
1 2018-07-06 18:00:00 rrr = 1.4 y WW = 2 w1=2 w2=2 1.4 2018-07-06 17:49:00
1 2018-07-14 18:00:00 rrr = 2.4 y WW = 1 w1=1 w2=1 2.4 2018-07-14 17:50:00
1 2018-07-15 18:00:00 rrr = 0.4 y WW = 2 w1=2 w2=2 0.4 2018-07-15 17:51:00
1 2018-08-12 12:00:00 rrr = 2.4 y WW = 2 w1=2 w2=2 2.4 2018-08-12 11:51:00
1 2018-08-13 12:00:00 rrr = 13.4 y WW = 1 w1=2 w2=2 13.4 2018-08-13 11:52:00
1 2018-08-25 12:00:00 rrr = 0.2 y WW = 5 w1=2 w2=2 0.2 2018-08-25 11:51:00
1 2018-08-26 12:00:00 rrr = 0.2 y WW = 10 w1=4 w2=2 0.2 2018-08-26 11:52:00
1 2018-08-26 18:00:00 rrr = 0.2 y WW = 2 w1=2 w2=2 0.2 2018-08-26 17:52:00
1 2018-08-30 12:00:00 rrr = 2.0 y WW = 2 w1=2 w2=2 2.0 2018-08-30 11:52:00
1 2018-09-03 18:00:00 rrr = 0.2 y WW = 2 w1=2 w2=2 0.2 2018-09-03 17:53:00
1 2018-09-06 12:00:00 rrr = 4.6 y WW = 1 w1=2 w2=2 4.6 2018-09-06 11:55:00
1 2018-09-08 12:00:00 rrr = 0.2 y WW = 10 w1=4 w2=4 0.2 2018-09-08 11:56:00
1 2018-09-11 18:00:00 rrr = 1.2 y WW = 3 w1=2 w2=2 1.2 2018-09-11 17:53:00
1 2018-09-17 12:00:00 rrr = 16.0 y WW = 1 w1=2 w2=2 16.0 2018-09-17 11:54:00
1 2018-09-18 18:00:00 rrr = 5.2 y WW = 1 w1=2 w2=2 5.2 2018-09-18 17:50:00
1 2018-09-20 18:00:00 rrr = 2.0 y WW = 2 w1=2 w2=2 2.0 2018-09-20 17:51:00
1 2018-09-25 12:00:00 rrr = 0.2 y WW = 1 w1=2 w2=2 0.2 2018-09-25 11:51:00
1 2018-10-01 18:00:00 rrr = 2.4 y WW = 2 w1=2 w2=2 2.4 2018-10-01 17:51:00
1 2018-10-10 12:00:00 rrr = 0.2 y WW = 2 w1=0 w2=0 0.2 2018-10-10 11:49:00
1 2018-10-15 18:00:00 rrr = 2.2 y WW = 2 w1=0 w2=0 2.2 2018-10-15 17:53:00
1 2018-10-27 12:00:00 rrr = 1.0 y WW = 2 w1=2 w2=2 1.0 2018-10-27 11:56:00
1 2018-10-27 18:00:00 rrr = s/p y WW = 80 w1=8 w2=2 0.0 2018-10-27 17:54:00
1 2018-10-29 12:00:00 rrr = 7.2 y WW = 2 w1=2 w2=2 7.2 2018-10-29 11:52:00
1 2018-10-29 18:00:00 rrr = 2.8 y WW = 2 w1=2 w2=2 2.8 2018-10-29 17:55:00
1 2018-10-30 18:00:00 rrr = 0.8 y WW = 2 w1=2 w2=2 0.8 2018-10-30 17:52:00
1 2018-10-31 12:00:00 rrr = 0.2 y WW = 40 w1=4 w2=2 0.2 2018-10-31 11:53:00
1 2018-11-05 12:00:00 rrr = 4.2 y WW = 1 w1=1 w2=1 4.2 2018-11-05 11:55:00
1 2018-11-10 12:00:00 rrr = 1.0 y WW = 1 w1=4 w2=3 1.0 2018-11-10 11:50:00
1 2018-11-11 12:00:00 rrr = s/p y WW = 2 w1=8 w2=2 0.0 2018-11-11 11:51:00
1 2018-11-14 12:00:00 rrr = 0.6 y WW = 3 w1=2 w2=2 0.6 2018-11-14 11:52:00
1 2018-11-14 18:00:00 rrr = 0.2 y WW = 2 w1=2 w2=2 0.2 2018-11-14 17:48:00
1 2018-11-15 12:00:00 rrr = 3.4 y WW = 0 w1=0 w2=0 3.4 2018-11-15 11:58:00
1 2018-11-17 18:00:00 rrr = 0.6 y WW = 1 w1=2 w2=2 0.6 2018-11-17 17:49:00
1 2018-11-20 12:00:00 rrr = 0.4 y WW = 2 w1=2 w2=2 0.4 2018-11-20 11:49:00
1 2018-12-09 12:00:00 rrr = 1.2 y WW = 2 w1=1 w2=1 1.2 2018-12-09 11:59:00
1 2018-12-10 18:00:00 rrr = 3.8 y WW = 2 w1=2 w2=2 3.8 2018-12-10 17:50:00
1 2018-12-11 18:00:00 rrr = 0.4 y WW = 2 w1=2 w2=2 0.4 2018-12-11 17:50:00
1 2018-12-12 12:00:00 rrr = 0.4 y WW = 10 w1=4 w2=4 0.4 2018-12-12 11:55:00
1 2018-12-12 18:00:00 rrr = trazas y WW = 0 w1=0 w2=0 0.0 2018-12-12 18:01:00
1 2018-12-14 12:00:00 rrr = 6.2 y WW = 2 w1=2 w2=2 6.2 2018-12-14 11:57:00
1 2018-12-27 12:00:00 rrr = 0.2 y WW = 2 w1=2 w2=2 0.2 2018-12-27 11:51:00
1 2019-01-01 12:00:00 rrr = 0.2 y WW = 1 w1=1 w2=1 0.2 2019-01-01 11:51:00
1 2019-01-01 12:00:00 rrr = 0.2 y WW = 1 w1=1 w2=1 0.2 2019-01-01 11:51:00
1 2019-01-07 18:00:00 rrr = s/p y WW = 60 w1=6 w2=6 0.0 2019-01-07 17:53:00
1 2019-01-09 12:00:00 rrr = 5.8 y WW = 1 w1=2 w2=2 5.8 2019-01-09 11:52:00
1 2019-01-09 18:00:00 rrr = 0.2 y WW = 2 w1=2 w2=2 0.2 2019-01-09 17:51:00
1 2019-02-19 12:00:00 rrr = 0.6 y WW = 1 w1=1 w2=1 0.6 2019-02-19 11:52:00
1 2019-02-22 12:00:00 rrr = 0.8 y WW = 2 w1=1 w2=1 0.8 2019-02-22 11:54:00
1 2019-02-23 12:00:00 rrr = 0.2 y WW = 2 w1=2 w2=2 0.2 2019-02-23 11:53:00
1 2019-03-07 12:00:00 rrr = 9.6 y WW = 1 w1=2 w2=2 9.6 2019-03-07 11:54:00
1 2019-03-16 18:00:00 rrr = trazas y WW = 2 w1=0 w2=0 0.0 2019-03-16 17:49:00
1 2019-04-13 00:00:00 rrr = 3.4 y WW = 3 w1=2 w2=2 3.4 2019-04-12 23:51:00
1 2019-04-29 00:00:00 rrr = 0.4 y WW = 2 w1=1 w2=1 0.4 2019-04-28 23:50:00
1 2019-05-03 00:00:00 rrr = 1.4 y WW = 2 w1=2 w2=2 1.4 2019-05-02 23:55:00
1 2019-05-18 18:00:00 rrr = 0.2 y WW = 2 w1=2 w2=2 0.2 2019-05-18 17:52:00
1 2019-05-20 00:00:00 rrr = 0.4 y WW = 2 w1=2 w2=2 0.4 2019-05-19 23:52:00
1 2019-05-20 18:00:00 rrr = 0.2 y WW = 2 w1=2 w2=2 0.2 2019-05-20 17:53:00
1 2019-05-27 00:00:00 rrr = s/p y WW = 10 w1=5 w2=2 0.0 2019-05-26 23:50:00
1 2019-05-28 00:00:00 rrr = 0.2 y WW = 2 w1=2 w2=2 0.2 2019-05-27 23:50:00
1 2019-05-28 18:00:00 rrr = 0.8 y WW = 3 w1=2 w2=2 0.8 2019-05-28 17:51:00
1 2019-05-29 00:00:00 rrr = 0.2 y WW = 10 w1=4 w2=4 0.2 2019-05-28 23:52:00
1 2019-06-06 18:00:00 rrr = 2.6 y WW = 2 w1=2 w2=2 2.6 2019-06-06 17:54:00
1 2019-06-10 18:00:00 rrr = 0.2 y WW = 2 w1=4 w2=2 0.2 2019-06-10 17:52:00
1 2019-06-11 18:00:00 rrr = 0.2 y WW = 2 w1=2 w2=2 0.2 2019-06-11 17:52:00
1 2019-06-17 18:00:00 rrr = 0.2 y WW = 2 w1=4 w2=0 0.2 2019-06-17 17:50:00
1 2019-06-22 00:00:00 rrr = 0.2 y WW = 2 w1=2 w2=2 0.2 2019-06-21 23:53:00
1 2019-06-30 18:00:00 rrr = 0.2 y WW = 3 w1=2 w2=2 0.2 2019-06-30 17:51:00
1 2019-07-01 18:00:00 rrr = 0.2 y WW = 1 w1=4 w2=2 0.2 2019-07-01 17:50:00
1 2019-07-12 00:00:00 rrr = 0.2 y WW = 2 w1=2 w2=2 0.2 2019-07-11 23:56:00
1 2019-07-14 18:00:00 rrr = 0.2 y WW = 3 w1=2 w2=2 0.2 2019-07-14 17:53:00
1 2019-08-16 18:00:00 rrr = 1.2 y WW = 3 w1=2 w2=2 1.2 2019-08-16 17:52:00
1 2019-08-20 18:00:00 rrr = 0.2 y WW = 2 w1=2 w2=2 0.2 2019-08-20 17:53:00
1 2019-08-25 00:00:00 rrr = 2.2 y WW = 2 w1=2 w2=2 2.2 2019-08-24 23:57:00
1 2019-08-26 18:00:00 rrr = 0.6 y WW = 2 w1=2 w2=2 0.6 2019-08-26 17:51:00
1 2019-08-30 18:00:00 rrr = 0.2 y WW = 3 w1=2 w2=2 0.2 2019-08-30 17:53:00
1 2019-09-06 18:00:00 rrr = trazas y WW = 2 w1=2 w2=2 0.0 2019-09-06 18:07:00
1 2019-09-08 12:00:00 rrr = 0.2 y WW = 3 w1=2 w2=2 0.2 2019-09-08 11:51:00
1 2019-09-09 12:00:00 rrr = s/p y WW = 50 w1=5 w2=2 0.0 2019-09-09 11:57:00
1 2019-09-10 12:00:00 rrr = 0.4 y WW = 2 w1=2 w2=2 0.4 2019-09-10 11:58:00
1 2019-09-20 18:00:00 rrr = 0.2 y WW = 2 w1=2 w2=2 0.2 2019-09-20 17:52:00
1 2019-09-23 18:00:00 rrr = 0.2 y WW = 2 w1=2 w2=2 0.2 2019-09-23 17:49:00
1 2019-09-28 12:00:00 rrr = 0.2 y WW = 2 w1=2 w2=2 0.2 2019-09-28 11:54:00
1 2019-10-01 12:00:00 rrr = 5.2 y WW = 1 w1=2 w2=2 5.2 2019-10-01 11:53:00
1 2019-10-06 18:00:00 rrr = 2.0 y WW = 1 w1=2 w2=2 2.0 2019-10-06 17:52:00
1 2019-10-17 18:00:00 rrr = s/p y WW = 2 w1=8 w2=2 0.0 2019-10-17 17:55:00
1 2019-10-25 18:00:00 rrr = 0.2 y WW = 3 w1=2 w2=2 0.2 2019-10-25 17:55:00
1 2019-10-29 12:00:00 rrr = 2.2 y WW = 3 w1=2 w2=2 2.2 2019-10-29 11:55:00
1 2019-10-29 18:00:00 rrr = 2.2 y WW = 3 w1=2 w2=2 2.2 2019-10-29 17:52:00
1 2019-11-03 18:00:00 rrr = trazas y WW = 3 w1=2 w2=2 0.0 2019-11-04 12:37:00
1 2019-11-16 12:00:00 rrr = 0.2 y WW = 10 w1=4 w2=4 0.2 2019-11-16 11:54:00
1 2019-11-17 18:00:00 rrr = 0.6 y WW = 3 w1=2 w2=2 0.6 2019-11-17 17:52:00
1 2019-11-18 12:00:00 rrr = 0.2 y WW = 10 w1=4 w2=2 0.2 2019-11-18 11:59:00
1 2019-11-25 18:00:00 rrr = 0.6 y WW = 2 w1=2 w2=2 0.6 2019-11-25 17:55:00
1 2019-11-26 12:00:00 rrr = 1.0 y WW = 3 w1=2 w2=2 1.0 2019-11-26 11:52:00
1 2019-11-26 18:00:00 rrr = 0.4 y WW = 3 w1=2 w2=2 0.4 2019-11-26 17:53:00
1 2019-11-27 18:00:00 rrr = 0.2 y WW = 3 w1=2 w2=2 0.2 2019-11-27 17:54:00
1 2019-11-30 12:00:00 rrr = 0.2 y WW = 3 w1=2 w2=2 0.2 2019-11-30 11:53:00
1 2019-12-11 18:00:00 rrr = trazas y WW = 1 w1=2 w2=1 0.0 2019-12-11 17:55:00
1 2019-12-19 12:00:00 rrr = 0.2 y WW = 10 w1=4 w2=4 0.2 2019-12-19 11:54:00
1 2019-12-24 12:00:00 rrr = 0.2 y WW = 2 w1=2 w2=2 0.2 2019-12-24 11:56:00
1 2020-01-07 18:00:00 rrr = s/p y WW = 80 w1=8 w2=8 0.0 2020-01-07 17:55:00
1 2020-02-04 12:00:00 rrr = 6.6 y WW = 1 w1=1 w2=1 6.6 2020-02-04 11:52:00
1 2020-02-15 12:00:00 rrr = trazas y WW = 2 w1=2 w2=2 0.0 2020-02-15 11:59:00
1 2020-03-24 12:00:00 rrr = 11.8 y WW = 2 w1=2 w2=2 11.8 2020-03-24 11:53:00
1 2020-03-25 12:00:00 rrr = 0.2 y WW = 10 w1=2 w2=2 0.2 2020-03-25 11:59:00
1 2020-04-03 18:00:00 rrr = trazas y WW = 3 w1=0 w2=0 0.0 2020-04-03 17:51:00
1 2020-05-02 18:00:00 rrr = 1.4 y WW = 2 w1=2 w2=2 1.4 2020-05-02 17:49:00
1 2020-05-04 18:00:00 rrr = 11.2 y WW = 3 w1=2 w2=2 11.2 2020-05-04 17:52:00
1 2020-05-14 18:00:00 rrr = 0.4 y WW = 2 w1=2 w2=2 0.4 2020-05-14 17:55:00
1 2020-05-27 12:00:00 rrr = 0.2 y WW = 2 w1=2 w2=2 0.2 2020-05-27 12:20:00
1 2020-06-02 18:00:00 rrr = 1.2 y WW = 2 w1=2 w2=2 1.2 2020-06-02 17:56:00
1 2020-06-05 18:00:00 rrr = trazas y WW = 2 w1=2 w2=2 0.0 2020-06-05 17:52:00
1 2020-06-12 18:00:00 rrr = 0.6 y WW = 1 w1=1 w2=1 0.6 2020-06-12 17:52:00
1 2020-06-21 18:00:00 rrr = 0.2 y WW = 3 w1=2 w2=2 0.2 2020-06-21 18:00:00
1 2020-06-22 18:00:00 rrr = 1.2 y WW = 3 w1=2 w2=2 1.2 2020-06-22 17:53:00
1 2020-06-28 18:00:00 rrr = 0.6 y WW = 3 w1=2 w2=2 0.6 2020-06-28 17:54:00
1 2020-07-01 18:00:00 rrr = 1.2 y WW = 3 w1=2 w2=2 1.2 2020-07-01 17:53:00
1 2020-07-10 18:00:00 rrr = 0.2 y WW = 2 w1=2 w2=2 0.2 2020-07-10 17:57:00
1 2020-07-23 18:00:00 rrr = 0.2 y WW = 0 w1=1 w2=1 0.2 2020-07-23 17:55:00
1 2020-08-12 18:00:00 rrr = 0.4 y WW = 3 w1=2 w2=2 0.4 2020-08-12 17:54:00
1 2020-08-15 18:00:00 rrr = 0.2 y WW = 3 w1=2 w2=2 0.2 2020-08-15 17:52:00
1 2020-09-07 12:00:00 rrr = 0.2 y WW = 2 w1=2 w2=2 0.2 2020-09-07 11:54:00
1 2020-09-09 12:00:00 rrr = 3.0 y WW = 40 w1=2 w2=2 3.0 2020-09-09 11:59:00
1 2020-09-11 18:00:00 rrr = 1.4 y WW = 1 w1=2 w2=2 1.4 2020-09-11 17:53:00
1 2020-09-17 18:00:00 rrr = 0.4 y WW = 2 w1=2 w2=2 0.4 2020-09-17 17:56:00
1 2020-09-23 18:00:00 rrr = 0.2 y WW = 2 w1=2 w2=2 0.2 2020-09-23 17:57:00
1 2020-09-29 12:00:00 rrr = 0.2 y WW = 3 w1=2 w2=2 0.2 2020-09-29 11:54:00
1 2020-10-06 18:00:00 rrr = trazas y WW = 2 w1=2 w2=2 0.0 2020-10-06 17:58:00
1 2020-10-07 18:00:00 rrr = 0.4 y WW = 2 w1=2 w2=2 0.4 2020-10-07 17:57:00
1 2020-10-09 18:00:00 rrr = 0.2 y WW = 1 w1=2 w2=2 0.2 2020-10-09 17:53:00
1 2020-10-25 12:00:00 rrr = 0.2 y WW = 10 w1=4 w2=4 0.2 2020-10-25 11:53:00
1 2020-10-27 12:00:00 rrr = 1.0 y WW = 3 w1=2 w2=2 1.0 2020-10-27 11:53:00
1 2020-10-27 18:00:00 rrr = 2.4 y WW = 3 w1=2 w2=2 2.4 2020-10-27 17:54:00
1 2020-10-28 12:00:00 rrr = 0.2 y WW = 2 w1=2 w2=2 0.2 2020-10-28 11:57:00
1 2020-10-29 18:00:00 rrr = 0.4 y WW = 2 w1=2 w2=2 0.4 2020-10-29 17:49:00
1 2020-11-04 12:00:00 rrr = 0.6 y WW = 3 w1=2 w2=2 0.6 2020-11-04 11:52:00
1 2020-11-24 12:00:00 rrr = 1.4 y WW = 3 w1=2 w2=2 1.4 2020-11-24 11:51:00
1 2020-11-29 12:00:00 rrr = 0.2 y WW = 1 w1=4 w2=4 0.2 2020-11-29 11:51:00
1 2020-12-08 12:00:00 rrr = 0.8 y WW = 2 w1=2 w2=2 0.8 2020-12-08 11:49:00
1 2020-12-19 18:00:00 rrr = 0.4 y WW = 2 w1=2 w2=2 0.4 2020-12-19 17:58:00
1 2020-12-29 18:00:00 rrr = 1.0 y WW = 2 w1=2 w2=2 1.0 2020-12-29 17:59:00
1 2020-12-30 00:00:00 rrr = 4.0 y WW = 2 w1=1 w2=1 4.0 2020-12-29 23:55:00
1 2021-01-11 12:00:00 rrr = 2.8 y WW = 1 w1=2 w2=2 2.8 2021-01-11 11:51:00
1 2021-01-29 12:00:00 rrr = 0.4 y WW = 2 w1=2 w2=2 0.4 2021-01-29 11:59:00
1 2021-02-04 18:00:00 rrr = trazas y WW = 2 w1=0 w2=0 0.0 2021-02-04 17:51:00
1 2021-02-10 18:00:00 rrr = trazas y WW = 2 w1=0 w2=0 0.0 2021-02-10 17:54:00
1 2021-02-18 18:00:00 rrr = 3.2 y WW = 1 w1=2 w2=2 3.2 2021-02-18 17:48:00
1 2021-02-26 12:00:00 rrr = s/p y WW = 52 w1=5 w2=2 0.0 2021-02-26 11:55:00
1 2021-03-07 18:00:00 rrr = 0.2 y WW = 2 w1=2 w2=2 0.2 2021-03-07 17:55:00
1 2021-03-10 18:00:00 rrr = 0.6 y WW = 2 w1=2 w2=2 0.6 2021-03-10 17:55:00
1 2021-03-22 18:00:00 rrr = trazas y WW = 2 w1=0 w2=0 0.0 2021-03-22 17:51:00
1 2021-03-25 18:00:00 rrr = trazas y WW = 1 w1=1 w2=1 0.0 2021-03-25 18:02:00
1 2021-04-08 18:00:00 rrr = 14.6 y WW = 1 w1=2 w2=2 14.6 2021-04-08 17:50:00
1 2021-04-15 18:00:00 rrr = trazas y WW = 2 w1=2 w2=2 0.0 2021-04-15 17:58:00
1 2021-04-21 18:00:00 rrr = 0.2 y WW = 2 w1=2 w2=2 0.2 2021-04-21 17:50:00
1 2021-04-23 18:00:00 rrr = 0.2 y WW = 1 w1=2 w2=2 0.2 2021-04-23 17:56:00
1 2021-05-04 18:00:00 rrr = 0.2 y WW = 0 w1=2 w2=2 0.2 2021-05-04 17:51:00
1 2021-05-12 18:00:00 rrr = 0.2 y WW = 2 w1=4 w2=2 0.2 2021-05-12 17:54:00
1 2021-05-18 18:00:00 rrr = 0.2 y WW = 2 w1=2 w2=2 0.2 2021-05-18 17:51:00
1 2021-05-19 18:00:00 rrr = 1.4 y WW = 2 w1=2 w2=2 1.4 2021-05-19 17:52:00
1 2021-06-01 18:00:00 rrr = 1.6 y WW = 1 w1=2 w2=2 1.6 2021-06-01 17:51:00
1 2021-06-06 18:00:00 rrr = 0.2 y WW = 2 w1=4 w2=4 0.2 2021-06-06 17:49:00
1 2021-06-10 18:00:00 rrr = 0.2 y WW = 2 w1=2 w2=1 0.2 2021-06-10 17:50:00
1 2021-06-16 18:00:00 rrr = 0.2 y WW = 3 w1=4 w2=4 0.2 2021-06-16 17:50:00
1 2021-06-19 18:00:00 rrr = 0.2 y WW = 1 w1=2 w2=2 0.2 2021-06-19 17:52:00
1 2021-06-23 18:00:00 rrr = 0.2 y WW = 3 w1=2 w2=2 0.2 2021-06-23 17:49:00
1 2021-06-25 18:00:00 rrr = 2.0 y WW = 2 w1=2 w2=2 2.0 2021-06-25 17:52:00
1 2021-06-29 18:00:00 rrr = 0.2 y WW = 10 w1=4 w2=4 0.2 2021-06-29 17:53:00
1 2021-06-30 18:00:00 rrr = 1.4 y WW = 2 w1=2 w2=2 1.4 2021-06-30 17:54:00
1 2021-07-01 00:00:00 rrr = 0.2 y WW = 10 w1=2 w2=2 0.2 2021-06-30 23:51:00
1 2021-07-02 18:00:00 rrr = 0.2 y WW = 16 w1=2 w2=2 0.2 2021-07-02 17:57:00
1 2021-07-09 18:00:00 rrr = 6.6 y WW = 3 w1=2 w2=2 6.6 2021-07-09 17:52:00
1 2021-07-17 18:00:00 rrr = 0.2 y WW = 10 w1=4 w2=4 0.2 2021-07-17 17:53:00
1 2021-07-26 18:00:00 rrr = 0.2 y WW = 3 w1=2 w2=2 0.2 2021-07-26 17:52:00
1 2021-07-29 18:00:00 rrr = 0.2 y WW = 1 w1=2 w2=2 0.2 2021-07-29 17:50:00
1 2021-07-31 18:00:00 rrr = 0.2 y WW = 1 w1=4 w2=2 0.2 2021-07-31 17:50:00
1 2021-08-08 18:00:00 rrr = 0.2 y WW = 2 w1=2 w2=2 0.2 2021-08-08 17:56:00
1 2021-08-13 18:00:00 rrr = 0.2 y WW = 2 w1=2 w2=2 0.2 2021-08-13 17:47:00
1 2021-08-14 18:00:00 rrr = trazas y WW = 2 w1=2 w2=2 0.0 2021-08-14 17:55:00
1 2021-08-16 18:00:00 rrr = 0.2 y WW = 2 w1=2 w2=2 0.2 2021-08-16 17:56:00
1 2021-08-22 18:00:00 rrr = 1.2 y WW = 1 w1=2 w2=2 1.2 2021-08-22 17:52:00
1 2021-08-23 18:00:00 rrr = 0.2 y WW = 2 w1=4 w2=2 0.2 2021-08-23 17:54:00
1 2021-09-01 18:00:00 rrr = 0.2 y WW = 2 w1=2 w2=2 0.2 2021-09-01 17:57:00
1 2021-09-10 18:00:00 rrr = 0.2 y WW = 2 w1=2 w2=2 0.2 2021-09-10 17:51:00
1 2021-09-14 12:00:00 rrr = 0.4 y WW = 11 w1=2 w2=2 0.4 2021-09-14 11:55:00
1 2021-09-14 18:00:00 rrr = 0.2 y WW = 2 w1=2 w2=2 0.2 2021-09-14 17:54:00
1 2021-09-17 12:00:00 rrr = 0.2 y WW = 2 w1=2 w2=2 0.2 2021-09-17 11:56:00
1 2021-09-26 18:00:00 rrr = 0.2 y WW = 2 w1=2 w2=2 0.2 2021-09-26 17:54:00
1 2021-10-02 12:00:00 rrr = 0.2 y WW = 2 w1=1 w2=1 0.2 2021-10-02 11:58:00
1 2021-10-06 12:00:00 rrr = trazas y WW = 2 w1=0 w2=0 0.0 2021-10-06 11:55:00
1 2021-10-12 12:00:00 rrr = 0.2 y WW = 2 w1=2 w2=2 0.2 2021-10-12 11:54:00
1 2021-10-14 18:00:00 rrr = 0.6 y WW = 1 w1=2 w2=2 0.6 2021-10-14 17:49:00
1 2021-10-15 12:00:00 rrr = 0.6 y WW = 10 w1=2 w2=2 0.6 2021-10-15 11:54:00
1 2021-10-24 18:00:00 rrr = 0.2 y WW = 2 w1=2 w2=2 0.2 2021-10-24 17:52:00
1 2021-11-03 18:00:00 rrr = 4.8 y WW = 2 w1=2 w2=2 4.8 2021-11-03 17:50:00
1 2021-11-06 18:00:00 rrr = trazas y WW = 2 w1=0 w2=0 0.0 2021-11-06 17:52:00
1 2021-11-07 12:00:00 rrr = trazas y WW = 2 w1=2 w2=2 0.0 2021-11-07 11:59:00
1 2021-11-13 18:00:00 rrr = 0.2 y WW = 1 w1=2 w2=2 0.2 2021-11-13 17:48:00
1 2021-12-01 18:00:00 rrr = trazas y WW = 2 w1=2 w2=2 0.0 2021-12-01 17:53:00
1 2021-12-11 18:00:00 rrr = 0.2 y WW = 3 w1=2 w2=2 0.2 2021-12-11 17:51:00
1 2021-12-12 12:00:00 rrr = s/p y WW = 80 w1=8 w2=8 0.0 2021-12-12 11:50:00
1 2021-12-15 12:00:00 rrr = trazas y WW = 2 w1=2 w2=2 0.0 2021-12-15 11:53:00
1 2021-12-23 12:00:00 rrr = trazas y WW = 2 w1=2 w2=2 0.0 2021-12-23 11:53:00
Errores del Nivel 428
Nivel Fecha del Dato Descripción Información Error Fecha Ingreso
2 1969-12-13 00:00:00 Temperatura 28.0 del 12-12-1969 18:00, Mayor que la Máxima 23.0 13-12-1969 00:00 28.0 -- 23.0 2011-05-30 09:41:00
2 2019-05-09 00:00:00 Temperatura 13.0 del 08-05-2019 20:00, Mayor que la Máxima 12.5 09-05-2019 00:00 13.0 -- 12.5 2019-05-14 19:22:00
Errores del Nivel 2
Informe generado el 05-03-2024 10:11
Requerimiento: RE6001